Aérodrome :
LOGIN :

S'inscrire | Disclaimer

   EN    FR    IT 

 










Légende :    VFR   VFR Marginal   IFR   IFR Intensif   IFR Très Intensif
Visi : 
Plafond : 
>= 8 km
>= 3000ft
5 à 8 km
1000 à 3000 ft
1500m à 5 km
500 à 1000 ft
800 à 1500m
200 à 500 ft
< 800m
< 200 ft
Symboles :   Orages  Brouillard  Fortes neiges  Fortes précipitations  Vent > 20 kt
SIGMETs :   Divers  Orages  Givrage  Turbulence  Onde Orograph.  Cendres Volcan.







- Altitude de l'aérodrome : 74 ft
- Code IATA : EIN


EHEH - Eindhoven

DERNIER METAR :
  • 140640Z AUTO 26005KT 220V300 8000 BR SCT028 OVC032 18/17 Q1012 BLU 24006KT 4500 BR FEW015 BKN025 BKN035 BECMG 27007KT 9999 NSW BKN015 BKN025

METARs EXPIRÉS :
  • 140625Z AUTO VRB05KT 5000 BR FEW019 OVC031 17/17 Q1012 WHT 24006KT 4500 BR FEW015 BKN025 BKN035 BECMG 27007KT 9999 NSW BKN015 BKN025
  • 140611Z AUTO 25005KT 220V300 5000 BR FEW009 BKN030 17/17 Q1012 WHT 24006KT 4500 BR FEW015 BKN025 BKN035 BECMG 27007KT 9999 NSW BKN015 BKN025
  • 140555Z AUTO VRB05KT 4100 BR FEW028 BKN032 17/16 Q1012 GRN 24006KT 4500 BR FEW015 BKN025 BKN035 BECMG 27007KT 9999 NSW BKN015 BKN025
  • 140547Z AUTO 24005KT 200V270 4000 BR SCT026 BKN029 BKN034 17/16 Q1012 GRN 23008KT 2500 -RA BR SCT007 BKN025 BKN090 BECMG 4500 BR FEW008 BKN014 BKN025
  • 140537Z AUTO 24006KT 220V280 3900 BR FEW017 BKN023 OVC026 17/17 Q1011 GRN 23008KT 2500 -RA BR SCT007 BKN025 BKN090 BECMG 4500 BR FEW008 BKN014 BKN025
  • 140526Z AUTO 24006KT 3300 R21/P3000N BR FEW005 SCT023 BKN026 17/17 Q1011 YLO 23008KT 2500 -RA BR SCT007 BKN025 BKN090 BECMG 4500 BR FEW008 BKN014 BKN025
  • 140525Z AUTO 24006KT 3400 R21/P3000N BR FEW005 BKN025 OVC028 17/17 Q1011 YLO 23008KT 2500 -RA BR SCT007 BKN025 BKN090 BECMG 4500 BR FEW008 BKN014 BKN025
  • 140515Z AUTO 24007KT 220V280 3600 R21/P3000N BR FEW023 BKN027 OVC030 17/16 Q1011 YLO 23008KT 2500 -RA BR SCT007 BKN025 BKN090 BECMG 4500 BR FEW008 BKN014 BKN025
  • 140502Z AUTO 24007KT 3000 R21/P3000U BR FEW006 BKN014 BKN017 17/16 Q1011 YLO 23008KT 2500 -RA BR SCT007 BKN025 BKN090 BECMG 4500 BR FEW008 BKN014 BKN025
  • 140458Z AUTO 24007KT 2900 R21/P3000U BR FEW006 OVC015 17/16 Q1011 YLO 23008KT 2500 -RA BR SCT007 BKN025 BKN090 BECMG 4500 BR FEW008 BKN014 BKN025
  • 140455Z AUTO 24008KT 2900 R21/2800N BR FEW013 BKN016 BKN022 17/16 Q1011 YLO 23008KT 2500 -RA BR SCT007 BKN025 BKN090 BECMG 4500 BR FEW008 BKN014 BKN025
  • 140425Z AUTO 23009KT 2900 BR FEW005 SCT007 FEW015CB BKN026 17/16 Q1010 REDZ YLO 23008KT 2500 -RA BR SCT007 BKN025 BKN090 BECMG 4500 BR FEW008 BKN014 BKN025
  • 140407Z AUTO 23009KT 2300 -DZ FEW002 SCT004 BKN005 FEW015CB 17/16 Q1010 YLO
  • 140355Z AUTO 23010KT 2000 RA SCT004 BKN005 BKN007 FEW015CB 17/16 Q1010 RERA REDZ YLO

TAF TAF EHEH
Valide du 14 à 06h jusqu'au 15 à 12h UTC


140516Z 1406/1512 23008KT 3500 BR FEW006 BKN025
BECMG 1406/1409 28008G18KT 9999 NSW SCT020
BECMG 1418/1421 22005KT
BECMG 1507/1510 22007G17KT
Pas de NOTAMs connus pour ce terrain.



MET'MAP, la Météo Aéronautique d'un coup d'oeil ! - Copyright ORBIFLY Décembre 2007 - Disclaimer

ORBIFLY MET'MAP TEAM :

Programmation & Développement : Alexandra Zaïnal
Conception & Développement : Baudouin d'Aumeries
Co-Programmation & Développement : Marc-Olivier Méhu
Soutien technique & logistique : Manuel Goepfert

Contact : metmap@orbifly.com




SOURCES & CREDITS :

   NOAA